Aviation Digital Data Service (ADDS)

Output produced by METARs form (1158 UTC 18 June 2019)
found at http://www.aviationweather.gov/metar/data/
 
METAR text: ZSAM 181100Z 18004MPS 9999 FEW020 FEW020CB 30/26 Q1009 NOSIG
Conditions at: ZSAM (XIAMEN , CN) observed 1100 UTC 18 June 2019
Temperature: 30.0°C (86°F)
Dewpoint: 26.0°C (79°F) [RH = 79%]
Pressure (altimeter): 29.79 inches Hg (1009.0 mb)
Winds: from the S (180 degrees) at 9 MPH (8 knots; 4.1 m/s)
Visibility: 6 or more miles (10+ km)
Ceiling: at least 12,000 feet AGL
Clouds: few clouds at 2000 feet AGL
few clouds at 2000 feet AGL
Weather: no significant weather observed at this time

METAR text: ZSAM 181000Z 19004MPS 9999 FEW020 FEW020CB 31/26 Q1008 NOSIG
Conditions at: ZSAM (XIAMEN , CN) observed 1000 UTC 18 June 2019
Temperature: 31.0°C (88°F)
Dewpoint: 26.0°C (79°F) [RH = 75%]
Pressure (altimeter): 29.76 inches Hg (1008.0 mb)
Winds: from the S (190 degrees) at 9 MPH (8 knots; 4.1 m/s)
Visibility: 6 or more miles (10+ km)
Ceiling: at least 12,000 feet AGL
Clouds: few clouds at 2000 feet AGL
few clouds at 2000 feet AGL
Weather: no significant weather observed at this time

METAR text: ZSAM 180900Z 19005MPS 9999 SCT020 FEW020TCU 31/26 Q1008 NOSIG
Conditions at: ZSAM (XIAMEN , CN) observed 0900 UTC 18 June 2019
Temperature: 31.0°C (88°F)
Dewpoint: 26.0°C (79°F) [RH = 75%]
Pressure (altimeter): 29.76 inches Hg (1008.0 mb)
Winds: from the S (190 degrees) at 12 MPH (10 knots; 5.1 m/s)
Visibility: 6 or more miles (10+ km)
Ceiling: at least 12,000 feet AGL
Clouds: scattered clouds at 2000 feet AGL
few clouds at 2000 feet AGL
Weather: no significant weather observed at this time

METAR text: ZSAM 180800Z 20005MPS 9999 SCT020 FEW020TCU 31/26 Q1008 NOSIG
Conditions at: ZSAM (XIAMEN , CN) observed 0800 UTC 18 June 2019
Temperature: 31.0°C (88°F)
Dewpoint: 26.0°C (79°F) [RH = 75%]
Pressure (altimeter): 29.76 inches Hg (1008.0 mb)
Winds: from the SSW (200 degrees) at 12 MPH (10 knots; 5.1 m/s)
Visibility: 6 or more miles (10+ km)
Ceiling: at least 12,000 feet AGL
Clouds: scattered clouds at 2000 feet AGL
few clouds at 2000 feet AGL
Weather: no significant weather observed at this time

METAR text: ZSAM 180700Z 18005MPS 9999 -SHRA SCT020 FEW020TCU 31/26 Q1008 NOSIG
Conditions at: ZSAM (XIAMEN , CN) observed 0700 UTC 18 June 2019
Temperature: 31.0°C (88°F)
Dewpoint: 26.0°C (79°F) [RH = 75%]
Pressure (altimeter): 29.76 inches Hg (1008.0 mb)
Winds: from the S (180 degrees) at 12 MPH (10 knots; 5.1 m/s)
Visibility: 6 or more miles (10+ km)
Ceiling: at least 12,000 feet AGL
Clouds: scattered clouds at 2000 feet AGL
few clouds at 2000 feet AGL
Weather: -SHRA  (light rain showers)

METAR text: ZSAM 180600Z 20006MPS 160V220 9999 SCT020 FEW020TCU 32/26 Q1009 NOSIG
Conditions at: ZSAM (XIAMEN , CN) observed 0600 UTC 18 June 2019
Temperature: 32.0°C (90°F)
Dewpoint: 26.0°C (79°F) [RH = 71%]
Pressure (altimeter): 29.79 inches Hg (1009.0 mb)
Winds: from the SSW (200 degrees) at 14 MPH (12 knots; 6.2 m/s)
Visibility: 6 or more miles (10+ km)
Ceiling: at least 12,000 feet AGL
Clouds: scattered clouds at 2000 feet AGL
few clouds at 2000 feet AGL
Weather: no significant weather observed at this time

METAR text: ZSAM 180500Z 19002MPS 130V240 9999 FEW008 SCT023 FEW023TCU 29/27 Q1009 RESHRA NOSIG
Conditions at: ZSAM (XIAMEN , CN) observed 0500 UTC 18 June 2019
Temperature: 29.0°C (84°F)
Dewpoint: 27.0°C (81°F) [RH = 89%]
Pressure (altimeter): 29.79 inches Hg (1009.0 mb)
Winds: from the S (190 degrees) at 5 MPH (4 knots; 2.1 m/s)
Visibility: 6 or more miles (10+ km)
Ceiling: at least 12,000 feet AGL
Clouds: few clouds at 800 feet AGL
scattered clouds at 2300 feet AGL
few clouds at 2300 feet AGL
Weather: no significant weather observed at this time

METAR text: ZSAM 180400Z 20004MPS 9999 BKN023 FEW023TCU BKN040 31/25 Q1010 BECMG TL0420 SHRA
Conditions at: ZSAM (XIAMEN , CN) observed 0400 UTC 18 June 2019
Temperature: 31.0°C (88°F)
Dewpoint: 25.0°C (77°F) [RH = 71%]
Pressure (altimeter): 29.82 inches Hg (1010.0 mb)
Winds: from the SSW (200 degrees) at 9 MPH (8 knots; 4.1 m/s)
Visibility: 6 or more miles (10+ km)
Ceiling: 2300 feet AGL
Clouds: broken clouds at 2300 feet AGL
few clouds at 2300 feet AGL
broken clouds at 4000 feet AGL
Weather: no significant weather observed at this time

METAR text: ZSAM 180300Z 22003MPS 200V260 9999 SCT019 FEW019TCU BKN040 30/26 Q1010 NOSIG
Conditions at: ZSAM (XIAMEN , CN) observed 0300 UTC 18 June 2019
Temperature: 30.0°C (86°F)
Dewpoint: 26.0°C (79°F) [RH = 79%]
Pressure (altimeter): 29.82 inches Hg (1010.0 mb)
Winds: from the SW (220 degrees) at 7 MPH (6 knots; 3.1 m/s)
Visibility: 6 or more miles (10+ km)
Ceiling: 4000 feet AGL
Clouds: scattered clouds at 1900 feet AGL
few clouds at 1900 feet AGL
broken clouds at 4000 feet AGL
Weather: no significant weather observed at this time

METAR text: ZSAM 180200Z 19003MPS 160V240 9999 FEW010 SCT019 FEW019TCU 30/25 Q1010 NOSIG
Conditions at: ZSAM (XIAMEN , CN) observed 0200 UTC 18 June 2019
Temperature: 30.0°C (86°F)
Dewpoint: 25.0°C (77°F) [RH = 75%]
Pressure (altimeter): 29.82 inches Hg (1010.0 mb)
Winds: from the S (190 degrees) at 7 MPH (6 knots; 3.1 m/s)
Visibility: 6 or more miles (10+ km)
Ceiling: at least 12,000 feet AGL
Clouds: few clouds at 1000 feet AGL
scattered clouds at 1900 feet AGL
few clouds at 1900 feet AGL
Weather: no significant weather observed at this time

METAR text: ZSAM 180100Z VRB01MPS 7000 FEW010 SCT016 29/26 Q1010 NOSIG
Conditions at: ZSAM (XIAMEN , CN) observed 0100 UTC 18 June 2019
Temperature: 29.0°C (84°F)
Dewpoint: 26.0°C (79°F) [RH = 84%]
Pressure (altimeter): 29.82 inches Hg (1010.0 mb)
Winds: variable direction winds at 2 MPH (2 knots; 1.0 m/s)
Visibility: 4 miles ( 7 km)
Ceiling: at least 12,000 feet AGL
Clouds: few clouds at 1000 feet AGL
scattered clouds at 1600 feet AGL
Weather: no significant weather observed at this time

METAR text: ZSAM 180000Z VRB01MPS 6000 FEW010 SCT033 28/26 Q1010 NOSIG
Conditions at: ZSAM (XIAMEN , CN) observed 0000 UTC 18 June 2019
Temperature: 28.0°C (82°F)
Dewpoint: 26.0°C (79°F) [RH = 89%]
Pressure (altimeter): 29.82 inches Hg (1010.0 mb)
Winds: variable direction winds at 2 MPH (2 knots; 1.0 m/s)
Visibility: 4 miles ( 6 km)
Ceiling: at least 12,000 feet AGL
Clouds: few clouds at 1000 feet AGL
scattered clouds at 3300 feet AGL
Weather: no significant weather observed at this time

METAR text: ZSAM 172300Z VRB01MPS 4500 BR FEW020 SCT033 26/25 Q1010 NOSIG
Conditions at: ZSAM (XIAMEN , CN) observed 2300 UTC 17 June 2019
Temperature: 26.0°C (79°F)
Dewpoint: 25.0°C (77°F) [RH = 94%]
Pressure (altimeter): 29.82 inches Hg (1010.0 mb)
Winds: variable direction winds at 2 MPH (2 knots; 1.0 m/s)
Visibility: 2.80 miles (4.51 km)
Ceiling: at least 12,000 feet AGL
Clouds: few clouds at 2000 feet AGL
scattered clouds at 3300 feet AGL
Weather: BR  (mist)

METAR text: ZSAM 172200Z 01001MPS 4000 BR SCT008 BKN020 OVC040 26/25 Q1010 NOSIG
Conditions at: ZSAM (XIAMEN , CN) observed 2200 UTC 17 June 2019
Temperature: 26.0°C (79°F)
Dewpoint: 25.0°C (77°F) [RH = 94%]
Pressure (altimeter): 29.82 inches Hg (1010.0 mb)
Winds: from the N (10 degrees) at 2 MPH (2 knots; 1.0 m/s)
Visibility: 2.49 miles (4.01 km)
Ceiling: 2000 feet AGL
Clouds: scattered clouds at 800 feet AGL
broken clouds at 2000 feet AGL
overcast cloud deck at 4000 feet AGL
Weather: BR  (mist)

METAR text: ZSAM 172100Z 34001MPS 3000 BR SCT008 BKN020 BKN040 25/25 Q1009 NOSIG
Conditions at: ZSAM (XIAMEN , CN) observed 2100 UTC 17 June 2019
Temperature: 25.0°C (77°F)
Dewpoint: 25.0°C (77°F) [RH = 100%]
Pressure (altimeter): 29.79 inches Hg (1009.0 mb)
Winds: from the NNW (340 degrees) at 2 MPH (2 knots; 1.0 m/s)
Visibility: 1.86 miles (2.99 km)
Ceiling: 2000 feet AGL
Clouds: scattered clouds at 800 feet AGL
broken clouds at 2000 feet AGL
broken clouds at 4000 feet AGL
Weather: BR  (mist)

METAR text: ZSAM 172000Z VRB01MPS 2800 BR SCT008 OVC020 25/25 Q1009 BECMG TL2030 BKN007 BKN020
Conditions at: ZSAM (XIAMEN , CN) observed 2000 UTC 17 June 2019
Temperature: 25.0°C (77°F)
Dewpoint: 25.0°C (77°F) [RH = 100%]
Pressure (altimeter): 29.79 inches Hg (1009.0 mb)
Winds: variable direction winds at 2 MPH (2 knots; 1.0 m/s)
Visibility: 1.74 miles (2.80 km)
Ceiling: 2000 feet AGL
Clouds: scattered clouds at 800 feet AGL
overcast cloud deck at 2000 feet AGL
Weather: BR  (mist)

METAR text: ZSAM 171900Z VRB01MPS 3500 -RA BR SCT008 OVC020 25/25 Q1009 BECMG TL2030 2500 BKN005 BKN020
Conditions at: ZSAM (XIAMEN , CN) observed 1900 UTC 17 June 2019
Temperature: 25.0°C (77°F)
Dewpoint: 25.0°C (77°F) [RH = 100%]
Pressure (altimeter): 29.79 inches Hg (1009.0 mb)
Winds: variable direction winds at 2 MPH (2 knots; 1.0 m/s)
Visibility: 2.17 miles (3.49 km)
Ceiling: 2000 feet AGL
Clouds: scattered clouds at 800 feet AGL
overcast cloud deck at 2000 feet AGL
Weather: -RA BR  (light rain, mist)

METAR text: ZSAM 171800Z VRB01MPS 4500 -RA BR SCT010 OVC020 25/25 Q1009 NOSIG
Conditions at: ZSAM (XIAMEN , CN) observed 1800 UTC 17 June 2019
Temperature: 25.0°C (77°F)
Dewpoint: 25.0°C (77°F) [RH = 100%]
Pressure (altimeter): 29.79 inches Hg (1009.0 mb)
Winds: variable direction winds at 2 MPH (2 knots; 1.0 m/s)
Visibility: 2.80 miles (4.51 km)
Ceiling: 2000 feet AGL
Clouds: scattered clouds at 1000 feet AGL
overcast cloud deck at 2000 feet AGL
Weather: -RA BR  (light rain, mist)

METAR text: ZSAM 171700Z 04002MPS 5000 -SHRA BR SCT010 BKN017 BKN026 FEW026CB 25/25 Q1010 NOSIG
Conditions at: ZSAM (XIAMEN , CN) observed 1700 UTC 17 June 2019
Temperature: 25.0°C (77°F)
Dewpoint: 25.0°C (77°F) [RH = 100%]
Pressure (altimeter): 29.82 inches Hg (1010.0 mb)
Winds: from the NE (40 degrees) at 5 MPH (4 knots; 2.1 m/s)
Visibility: 3 miles ( 5 km)
Ceiling: 1700 feet AGL
Clouds: scattered clouds at 1000 feet AGL
broken clouds at 1700 feet AGL
broken clouds at 2600 feet AGL
few clouds at 2600 feet AGL
Weather: -SHRA BR  (light rain showers, mist)

METAR text: ZSAM 171600Z 10002MPS 050V140 4500 -SHRA BR SCT011 BKN017 BKN026 FEW026TCU 26/24 Q1011 RERA NOSIG
Conditions at: ZSAM (XIAMEN , CN) observed 1600 UTC 17 June 2019
Temperature: 26.0°C (79°F)
Dewpoint: 24.0°C (75°F) [RH = 89%]
Pressure (altimeter): 29.85 inches Hg (1011.0 mb)
Winds: from the E (100 degrees) at 5 MPH (4 knots; 2.1 m/s)
Visibility: 2.80 miles (4.51 km)
Ceiling: 1700 feet AGL
Clouds: scattered clouds at 1100 feet AGL
broken clouds at 1700 feet AGL
broken clouds at 2600 feet AGL
few clouds at 2600 feet AGL
Weather: -SHRA BR  (light rain showers, mist)

METAR text: ZSAM 171500Z 12004MPS 6000 RA BKN017 OVC030 26/24 Q1011 BECMG TL1600 -RA
Conditions at: ZSAM (XIAMEN , CN) observed 1500 UTC 17 June 2019
Temperature: 26.0°C (79°F)
Dewpoint: 24.0°C (75°F) [RH = 89%]
Pressure (altimeter): 29.85 inches Hg (1011.0 mb)
Winds: from the ESE (120 degrees) at 9 MPH (8 knots; 4.1 m/s)
Visibility: 4 miles ( 6 km)
Ceiling: 1700 feet AGL
Clouds: broken clouds at 1700 feet AGL
overcast cloud deck at 3000 feet AGL
Weather: RA  (moderate rain)

METAR text: ZSAM 171400Z 10003MPS 060V130 9999 BKN026 27/24 Q1011 NOSIG
Conditions at: ZSAM (XIAMEN , CN) observed 1400 UTC 17 June 2019
Temperature: 27.0°C (81°F)
Dewpoint: 24.0°C (75°F) [RH = 84%]
Pressure (altimeter): 29.85 inches Hg (1011.0 mb)
Winds: from the E (100 degrees) at 7 MPH (6 knots; 3.1 m/s)
Visibility: 6 or more miles (10+ km)
Ceiling: 2600 feet AGL
Clouds: broken clouds at 2600 feet AGL
Weather: no significant weather observed at this time

METAR text: ZSAM 171300Z 09003MPS 060V120 9999 BKN027 27/24 Q1011 NOSIG
Conditions at: ZSAM (XIAMEN , CN) observed 1300 UTC 17 June 2019
Temperature: 27.0°C (81°F)
Dewpoint: 24.0°C (75°F) [RH = 84%]
Pressure (altimeter): 29.85 inches Hg (1011.0 mb)
Winds: from the E (90 degrees) at 7 MPH (6 knots; 3.1 m/s)
Visibility: 6 or more miles (10+ km)
Ceiling: 2700 feet AGL
Clouds: broken clouds at 2700 feet AGL
Weather: no significant weather observed at this time

METAR text: ZSAM 171200Z 12003MPS 090V160 9999 BKN033 27/24 Q1010 NOSIG
Conditions at: ZSAM (XIAMEN , CN) observed 1200 UTC 17 June 2019
Temperature: 27.0°C (81°F)
Dewpoint: 24.0°C (75°F) [RH = 84%]
Pressure (altimeter): 29.82 inches Hg (1010.0 mb)
Winds: from the ESE (120 degrees) at 7 MPH (6 knots; 3.1 m/s)
Visibility: 6 or more miles (10+ km)
Ceiling: 3300 feet AGL
Clouds: broken clouds at 3300 feet AGL
Weather: no significant weather observed at this time

METAR text: ZSAM 171100Z 07002MPS 040V110 9999 BKN040 27/24 Q1010 NOSIG
Conditions at: ZSAM (XIAMEN , CN) observed 1100 UTC 17 June 2019
Temperature: 27.0°C (81°F)
Dewpoint: 24.0°C (75°F) [RH = 84%]
Pressure (altimeter): 29.82 inches Hg (1010.0 mb)
Winds: from the ENE (70 degrees) at 5 MPH (4 knots; 2.1 m/s)
Visibility: 6 or more miles (10+ km)
Ceiling: 4000 feet AGL
Clouds: broken clouds at 4000 feet AGL
Weather: no significant weather observed at this time

METAR text: ZSAM 171000Z 11003MPS 9999 BKN030 27/24 Q1010 NOSIG
Conditions at: ZSAM (XIAMEN , CN) observed 1000 UTC 17 June 2019
Temperature: 27.0°C (81°F)
Dewpoint: 24.0°C (75°F) [RH = 84%]
Pressure (altimeter): 29.82 inches Hg (1010.0 mb)
Winds: from the ESE (110 degrees) at 7 MPH (6 knots; 3.1 m/s)
Visibility: 6 or more miles (10+ km)
Ceiling: 3000 feet AGL
Clouds: broken clouds at 3000 feet AGL
Weather: no significant weather observed at this time

METAR text: ZSAM 170900Z 09003MPS 9999 BKN030 28/24 Q1009 NOSIG
Conditions at: ZSAM (XIAMEN , CN) observed 0900 UTC 17 June 2019
Temperature: 28.0°C (82°F)
Dewpoint: 24.0°C (75°F) [RH = 79%]
Pressure (altimeter): 29.79 inches Hg (1009.0 mb)
Winds: from the E (90 degrees) at 7 MPH (6 knots; 3.1 m/s)
Visibility: 6 or more miles (10+ km)
Ceiling: 3000 feet AGL
Clouds: broken clouds at 3000 feet AGL
Weather: no significant weather observed at this time

METAR text: ZSAM 170800Z 08004MPS 9999 FEW023 BKN050 29/24 Q1009 NOSIG
Conditions at: ZSAM (XIAMEN , CN) observed 0800 UTC 17 June 2019
Temperature: 29.0°C (84°F)
Dewpoint: 24.0°C (75°F) [RH = 74%]
Pressure (altimeter): 29.79 inches Hg (1009.0 mb)
Winds: from the E (80 degrees) at 9 MPH (8 knots; 4.1 m/s)
Visibility: 6 or more miles (10+ km)
Ceiling: 5000 feet AGL
Clouds: few clouds at 2300 feet AGL
broken clouds at 5000 feet AGL
Weather: no significant weather observed at this time

METAR text: ZSAM 170700Z 11004MPS 9999 FEW020 OVC030 28/24 Q1010 NOSIG
Conditions at: ZSAM (XIAMEN , CN) observed 0700 UTC 17 June 2019
Temperature: 28.0°C (82°F)
Dewpoint: 24.0°C (75°F) [RH = 79%]
Pressure (altimeter): 29.82 inches Hg (1010.0 mb)
Winds: from the ESE (110 degrees) at 9 MPH (8 knots; 4.1 m/s)
Visibility: 6 or more miles (10+ km)
Ceiling: 3000 feet AGL
Clouds: few clouds at 2000 feet AGL
overcast cloud deck at 3000 feet AGL
Weather: no significant weather observed at this time

METAR text: ZSAM 170600Z 11004MPS 070V150 9999 FEW020 OVC030 28/24 Q1010 NOSIG
Conditions at: ZSAM (XIAMEN , CN) observed 0600 UTC 17 June 2019
Temperature: 28.0°C (82°F)
Dewpoint: 24.0°C (75°F) [RH = 79%]
Pressure (altimeter): 29.82 inches Hg (1010.0 mb)
Winds: from the ESE (110 degrees) at 9 MPH (8 knots; 4.1 m/s)
Visibility: 6 or more miles (10+ km)
Ceiling: 3000 feet AGL
Clouds: few clouds at 2000 feet AGL
overcast cloud deck at 3000 feet AGL
Weather: no significant weather observed at this time

METAR text: ZSAM 170500Z 11003MPS 050V150 9999 -RA BKN033 29/23 Q1010 NOSIG
Conditions at: ZSAM (XIAMEN , CN) observed 0500 UTC 17 June 2019
Temperature: 29.0°C (84°F)
Dewpoint: 23.0°C (73°F) [RH = 70%]
Pressure (altimeter): 29.82 inches Hg (1010.0 mb)
Winds: from the ESE (110 degrees) at 7 MPH (6 knots; 3.1 m/s)
Visibility: 6 or more miles (10+ km)
Ceiling: 3300 feet AGL
Clouds: broken clouds at 3300 feet AGL
Weather: -RA  (light rain)

METAR text: ZSAM 170400Z 11003MPS 070V150 9999 BKN033 29/23 Q1010 NOSIG
Conditions at: ZSAM (XIAMEN , CN) observed 0400 UTC 17 June 2019
Temperature: 29.0°C (84°F)
Dewpoint: 23.0°C (73°F) [RH = 70%]
Pressure (altimeter): 29.82 inches Hg (1010.0 mb)
Winds: from the ESE (110 degrees) at 7 MPH (6 knots; 3.1 m/s)
Visibility: 6 or more miles (10+ km)
Ceiling: 3300 feet AGL
Clouds: broken clouds at 3300 feet AGL
Weather: no significant weather observed at this time

METAR text: ZSAM 170300Z 07003MPS 030V110 9999 SCT023 BKN060 29/22 Q1010 NOSIG
Conditions at: ZSAM (XIAMEN , CN) observed 0300 UTC 17 June 2019
Temperature: 29.0°C (84°F)
Dewpoint: 22.0°C (72°F) [RH = 66%]
Pressure (altimeter): 29.82 inches Hg (1010.0 mb)
Winds: from the ENE (70 degrees) at 7 MPH (6 knots; 3.1 m/s)
Visibility: 6 or more miles (10+ km)
Ceiling: 6000 feet AGL
Clouds: scattered clouds at 2300 feet AGL
broken clouds at 6000 feet AGL
Weather: no significant weather observed at this time

METAR text: ZSAM 170200Z 02003MPS 340V070 9999 SCT023 29/23 Q1010 NOSIG
Conditions at: ZSAM (XIAMEN , CN) observed 0200 UTC 17 June 2019
Temperature: 29.0°C (84°F)
Dewpoint: 23.0°C (73°F) [RH = 70%]
Pressure (altimeter): 29.82 inches Hg (1010.0 mb)
Winds: from the NNE (20 degrees) at 7 MPH (6 knots; 3.1 m/s)
Visibility: 6 or more miles (10+ km)
Ceiling: at least 12,000 feet AGL
Clouds: scattered clouds at 2300 feet AGL
Weather: no significant weather observed at this time

METAR text: ZSAM 170100Z VRB02MPS 9999 FEW023 28/23 Q1011 NOSIG
Conditions at: ZSAM (XIAMEN , CN) observed 0100 UTC 17 June 2019
Temperature: 28.0°C (82°F)
Dewpoint: 23.0°C (73°F) [RH = 74%]
Pressure (altimeter): 29.85 inches Hg (1011.0 mb)
Winds: variable direction winds at 5 MPH (4 knots; 2.1 m/s)
Visibility: 6 or more miles (10+ km)
Ceiling: at least 12,000 feet AGL
Clouds: few clouds at 2300 feet AGL
Weather: no significant weather observed at this time

METAR text: ZSAM 170000Z 04002MPS 010V070 CAVOK 27/22 Q1010 NOSIG
Conditions at: ZSAM (XIAMEN , CN) observed 0000 UTC 17 June 2019
Temperature: 27.0°C (81°F)
Dewpoint: 22.0°C (72°F) [RH = 74%]
Pressure (altimeter): 29.82 inches Hg (1010.0 mb)
Winds: from the NE (40 degrees) at 5 MPH (4 knots; 2.1 m/s)
Visibility: 6 or more miles (10+ km)
Ceiling: ceiling and visibility are OK
Clouds: unknown
Weather: no significant weather observed at this time

Forecast for: ZSAM (XIAMEN , CN)
Text: TAF ZSAM 180905Z 1812/1912 20003G08MPS 6000 SCT017 BKN030 TX33/1906Z TN25/1821Z
Forecast period: 1200 UTC 18 June 2019 to 1200 UTC 19 June 2019
Forecast type: FROM: standard forecast or significant change
Winds: from the SSW (200 degrees) at 7 MPH (6 knots; 3.1 m/s)
gusting to 18 MPH (16 knots; 8.2 m/s)
Visibility: 4 miles (6 km)
Ceiling: 3000 feet AGL
Clouds: scattered clouds at 1700 feet AGL
broken clouds at 3000 feet AGL
Weather: no significant weather forecast for this period
Text: TEMPO 1906/1912 BKN010 FEW026CB BKN030
Forecast period: 0600 to 1200 UTC 19 June 2019
Forecast type: TEMPORARY: The following changes expected for less than half the time period
Visibility: missing
Ceiling: 1000 feet AGL
Clouds: broken clouds at 1000 feet AGL
few clouds at 2600 feet AGL
broken clouds at 3000 feet AGL
Weather: no significant weather forecast for this period